Time;durP1;ratioP1;P1;durP2;ratioP2;P2;SDS_P1;SDS_P2;PMS_P1;PMS_P2;Temp;Humidity;BMP_temperature;BMP_pressure;BME280_temperature;BME280_humidity;BME280_pressure;Samples;Min_cycle;Max_cycle;Signal;HPM_P1;HPM_P2
2022/03/14 00:03:21;;;;;;;66.17;33.73;;;;;;;3.61;55.89;101836.73;4964271;58;1138734;-71
2022/03/14 00:08:31;;;;;;;69.13;32.50;;;;;;;3.58;56.05;101839.87;4972191;58;1138697;-72
2022/03/14 00:13:34;;;;;;;66.77;31.47;;;;;;;3.53;56.71;101841.30;4972466;57;1138912;-71
2022/03/14 00:18:43;;;;;;;64.70;31.87;;;;;;;3.47;57.32;101845.41;4971761;58;1138828;-71
2022/03/14 00:23:47;;;;;;;67.23;33.47;;;;;;;3.42;57.37;101846.83;4972700;58;1138751;-71
2022/03/14 00:28:53;;;;;;;72.53;35.03;;;;;;;3.39;57.20;101843.44;4972911;58;1138730;-71
2022/03/14 00:33:59;;;;;;;76.87;33.13;;;;;;;3.39;57.22;101846.05;4987569;57;1138907;-71
2022/03/14 00:39:05;;;;;;;73.20;33.25;;;;;;;3.35;57.65;101845.74;5031043;57;1139014;-71
2022/03/14 00:44:16;;;;;;;67.60;32.50;;;;;;;3.31;58.14;101853.25;5030939;57;1139020;-71
2022/03/14 00:49:22;;;;;;;63.30;30.77;;;;;;;3.28;59.00;101852.88;5030766;57;1138726;-71
2022/03/14 00:54:28;;;;;;;66.30;32.20;;;;;;;3.23;58.93;101851.27;5030826;57;1138817;-71
2022/03/14 00:59:34;;;;;;;66.97;31.83;;;;;;;3.17;59.43;101853.61;5030639;57;1138793;-71
2022/03/14 01:04:40;;;;;;;65.28;30.57;;;;;;;3.14;59.34;101856.30;5020929;57;1139143;-71
2022/03/14 01:09:46;;;;;;;68.07;31.07;;;;;;;3.10;59.48;101853.34;5019374;57;1138867;-71
2022/03/14 01:14:52;;;;;;;65.60;31.13;;;;;;;3.08;59.57;101845.54;5019341;57;1138962;-72
2022/03/14 01:19:58;;;;;;;63.07;31.20;;;;;;;3.06;59.69;101849.95;5005482;57;1138902;-72
2022/03/14 01:25:06;;;;;;;67.82;31.55;;;;;;;3.02;60.33;101847.47;4984808;57;1138965;-71
2022/03/14 01:30:15;;;;;;;62.10;29.90;;;;;;;3.01;60.38;101849.22;5021113;57;1139092;-72
2022/03/14 01:35:20;;;;;;;60.17;29.23;;;;;;;2.96;61.21;101856.31;5043282;57;1138728;-71
2022/03/14 01:40:28;;;;;;;66.77;30.93;;;;;;;2.87;62.19;101856.55;5054840;57;1138931;-71
2022/03/14 01:45:34;;;;;;;67.03;30.33;;;;;;;2.85;61.90;101858.33;5015848;57;1138786;-72
2022/03/14 01:50:41;;;;;;;52.97;28.23;;;;;;;2.81;61.76;101865.38;5054865;57;1138603;-72
2022/03/14 01:55:50;;;;;;;57.73;28.53;;;;;;;2.78;62.11;101875.03;5054839;57;1138888;-71
2022/03/14 02:00:56;;;;;;;60.07;28.13;;;;;;;2.71;63.30;101870.42;5054810;57;1138592;-72
2022/03/14 02:06:01;;;;;;;62.23;27.77;;;;;;;2.67;63.69;101870.08;5055515;57;1140493;-71
2022/03/14 02:11:07;;;;;;;55.57;25.40;;;;;;;2.63;63.59;101871.03;5055680;57;1138723;-71
2022/03/14 02:16:13;;;;;;;65.77;29.03;;;;;;;2.60;63.91;101869.80;5055705;57;1138767;-71
2022/03/14 02:21:19;;;;;;;61.80;27.00;;;;;;;2.59;63.52;101873.77;5055579;57;1138605;-71
2022/03/14 02:26:24;;;;;;;61.97;27.80;;;;;;;2.57;63.94;101871.20;5055468;57;1138631;-71
2022/03/14 02:31:30;;;;;;;59.80;26.87;;;;;;;2.54;63.50;101873.01;5055538;57;1138559;-71
2022/03/14 02:36:39;;;;;;;54.33;26.50;;;;;;;2.51;64.57;101865.23;5024980;57;1138723;-71
2022/03/14 02:41:46;;;;;;;51.67;24.67;;;;;;;2.45;64.51;101873.61;5031356;57;1138608;-71
2022/03/14 02:46:51;;;;;;;55.50;24.93;;;;;;;2.40;64.73;101868.96;5031025;57;1138650;-71
2022/03/14 02:51:57;;;;;;;61.60;26.77;;;;;;;2.36;64.56;101875.58;5031269;57;1138645;-71
2022/03/14 02:57:05;;;;;;;53.30;23.03;;;;;;;2.36;65.38;101875.13;5029111;57;1254502;-72
2022/03/14 03:02:10;;;;;;;56.18;25.25;;;;;;;2.31;65.29;101873.06;5031142;57;1138853;-71
2022/03/14 03:07:23;;;;;;;54.42;25.52;;;;;;;2.29;64.96;101870.09;5031032;57;1138795;-71
2022/03/14 03:12:30;;;;;;;47.45;24.10;;;;;;;2.27;65.90;101863.60;4960967;57;1139237;-72
2022/03/14 03:17:33;;;;;;;49.73;23.73;;;;;;;2.29;65.40;101862.27;4900679;57;1138910;-72
2022/03/14 03:22:39;;;;;;;52.00;23.70;;;;;;;2.22;67.28;101866.75;4871328;58;1138807;-72
2022/03/14 03:27:45;;;;;;;56.37;23.77;;;;;;;2.11;67.24;101855.69;4874929;58;1139040;-71
2022/03/14 03:32:51;;;;;;;48.58;22.27;;;;;;;2.09;68.06;101863.55;4870516;58;1138757;-72
2022/03/14 03:37:57;;;;;;;43.98;20.23;;;;;;;2.04;67.98;101864.52;4873808;58;1138780;-71
2022/03/14 03:43:04;;;;;;;50.08;21.48;;;;;;;2.04;67.62;101876.27;4877369;58;1139110;-72
2022/03/14 03:48:09;;;;;;;46.35;22.10;;;;;;;2.03;67.82;101878.02;4801453;58;1138987;-72
2022/03/14 03:53:15;;;;;;;48.63;21.20;;;;;;;1.99;68.89;101875.48;4857663;57;1138964;-71
2022/03/14 03:58:21;;;;;;;47.97;21.40;;;;;;;1.95;68.85;101876.02;4789832;59;1138817;-72
2022/03/14 04:03:28;;;;;;;42.53;20.10;;;;;;;1.93;69.41;101875.19;4940507;56;1138995;-71
2022/03/14 04:08:34;;;;;;;44.20;21.37;;;;;;;1.89;68.63;101881.35;4922386;57;1139048;-71
2022/03/14 04:13:41;;;;;;;50.65;21.97;;;;;;;1.87;68.72;101880.52;4963840;56;1138962;-72
2022/03/14 04:18:47;;;;;;;41.33;18.90;;;;;;;1.85;68.34;101880.98;4995487;57;1139069;-71
2022/03/14 04:23:53;;;;;;;48.28;22.15;;;;;;;1.80;69.26;101879.38;4954396;56;1138936;-71
2022/03/14 04:28:58;;;;;;;45.95;21.65;;;;;;;1.78;68.72;101886.38;4931727;57;1138973;-71
2022/03/14 04:34:04;;;;;;;52.95;21.15;;;;;;;1.74;68.55;101889.48;4965363;56;1139078;-71
2022/03/14 04:39:10;;;;;;;47.07;22.20;;;;;;;1.68;68.92;101886.53;5016376;56;1138955;-72
2022/03/14 04:44:16;;;;;;;102.13;43.33;;;;;;;1.65;69.30;101890.52;4879759;57;1138778;-71
2022/03/14 04:49:22;;;;;;;48.43;24.50;;;;;;;1.58;69.29;101885.44;4850436;59;1141138;-71
2022/03/14 04:54:28;;;;;;;45.23;20.40;;;;;;;1.47;70.20;101884.34;5009340;55;1139057;-71
2022/03/14 04:59:33;;;;;;;52.00;23.40;;;;;;;1.41;70.03;101890.95;4818046;58;1139078;-71
2022/03/14 05:04:39;;;;;;;46.27;22.27;;;;;;;1.35;71.19;101898.91;4901855;57;1139712;-70
2022/03/14 05:09:45;;;;;;;52.30;23.50;;;;;;;1.25;71.38;101904.70;4837940;57;1178209;-71
2022/03/14 05:14:54;;;;;;;52.47;22.43;;;;;;;1.21;71.51;101919.99;4842568;58;1138984;-71
2022/03/14 05:20:00;;;;;;;56.23;25.03;;;;;;;1.14;72.27;101911.84;4770365;59;1138931;-71
2022/03/14 05:25:07;;;;;;;49.30;21.50;;;;;;;1.02;74.00;101909.45;4871606;58;1138916;-71
2022/03/14 05:30:14;;;;;;;56.70;23.25;;;;;;;0.93;73.05;101908.27;4909064;58;1139046;-72
2022/03/14 05:35:21;;;;;;;58.95;24.07;;;;;;;0.92;72.91;101910.01;4938216;57;1141156;-72
2022/03/14 05:40:27;;;;;;;44.70;21.23;;;;;;;0.94;72.90;101910.85;4806425;59;1139102;-71
2022/03/14 05:45:32;;;;;;;66.17;28.67;;;;;;;0.93;74.51;101914.34;4963626;57;1139515;-71
2022/03/14 05:50:38;;;;;;;58.33;23.47;;;;;;;0.91;73.68;101910.92;5051967;56;1138870;-71
2022/03/14 05:55:44;;;;;;;46.57;21.47;;;;;;;0.99;74.11;101924.67;5051092;56;1138882;-71
2022/03/14 06:00:52;;;;;;;50.87;22.00;;;;;;;1.09;74.09;101923.21;5054750;56;1138888;-71
2022/03/14 06:05:58;;;;;;;48.20;22.33;;;;;;;1.23;74.28;101918.63;5057256;56;1138897;-71
2022/03/14 06:11:08;;;;;;;50.93;22.13;;;;;;;1.35;73.38;101920.62;5073448;56;1138922;-71
2022/03/14 06:16:13;;;;;;;48.27;21.97;;;;;;;1.45;73.20;101925.22;5109992;56;1138941;-72
2022/03/14 06:21:19;;;;;;;52.45;21.87;;;;;;;1.62;73.03;101928.39;5110071;56;1138890;-73
2022/03/14 06:26:25;;;;;;;53.50;21.47;;;;;;;1.79;72.96;101933.73;5108782;56;1138867;-72
2022/03/14 06:31:31;;;;;;;50.07;21.20;;;;;;;1.92;72.17;101938.69;5109063;56;1138986;-73
2022/03/14 06:36:37;;;;;;;45.37;22.47;;;;;;;2.14;71.86;101948.72;5061135;56;1139066;-73
2022/03/14 06:41:45;;;;;;;46.62;21.56;;;;;;;2.31;70.85;101946.16;5060543;56;1138901;-73
2022/03/14 06:46:52;;;;;;;45.33;21.80;;;;;;;2.45;70.41;101947.17;5031159;56;1138847;-74
2022/03/14 06:51:57;;;;;;;49.90;21.80;;;;;;;2.59;69.62;101941.23;5037758;56;1138975;-73
2022/03/14 06:57:04;;;;;;;51.28;21.00;;;;;;;2.78;69.22;101937.73;5036194;57;1138913;-74
2022/03/14 07:02:10;;;;;;;44.85;22.02;;;;;;;2.97;68.42;101929.03;5042110;56;1138857;-74
2022/03/14 07:07:16;;;;;;;52.07;22.17;;;;;;;3.18;67.20;101922.86;5039425;56;1138913;-73
2022/03/14 07:12:22;;;;;;;54.30;21.80;;;;;;;3.32;66.06;101912.05;5041261;56;1138944;-75
2022/03/14 07:17:27;;;;;;;51.80;21.77;;;;;;;3.42;65.25;101920.05;5051041;55;1138790;-74
2022/03/14 07:22:38;;;;;;;68.93;25.00;;;;;;;3.59;64.63;101929.23;4984538;57;1138809;-73
2022/03/14 07:27:41;;;;;;;46.90;22.13;;;;;;;3.78;63.92;101926.09;4954314;57;1139026;-73
2022/03/14 07:32:47;;;;;;;43.77;22.93;;;;;;;4.06;63.40;101932.73;4970545;56;1139211;-74
2022/03/14 07:37:53;;;;;;;43.87;22.27;;;;;;;4.41;62.50;101937.41;4956597;57;1139814;-73
2022/03/14 07:43:01;;;;;;;38.73;18.33;;;;;;;4.67;61.42;101943.17;4844809;57;1138778;-73
2022/03/14 07:48:10;;;;;;;42.60;20.17;;;;;;;4.89;58.49;101941.14;4771365;59;1138820;-73
2022/03/14 07:53:16;;;;;;;52.98;21.23;;;;;;;5.05;58.03;101932.78;4842848;58;1138901;-74
2022/03/14 07:58:22;;;;;;;44.73;21.00;;;;;;;5.24;57.63;101940.02;4888650;58;1138832;-74
2022/03/14 08:03:28;;;;;;;40.03;20.50;;;;;;;5.46;57.11;101928.82;4713249;59;1138919;-72
2022/03/14 08:08:34;;;;;;;38.53;20.10;;;;;;;5.60;54.26;101939.25;4766534;60;1138910;-72
2022/03/14 08:13:41;;;;;;;42.15;19.73;;;;;;;5.83;55.62;101934.95;4795364;59;1139121;-74
2022/03/14 08:18:47;;;;;;;43.55;20.65;;;;;;;5.99;53.08;101929.59;4846107;59;1138830;-72
2022/03/14 08:23:52;;;;;;;40.07;21.73;;;;;;;6.05;53.61;101924.13;4778438;60;1138994;-71
2022/03/14 08:29:00;;;;;;;39.95;20.27;;;;;;;6.23;52.23;101930.48;4856200;58;1139095;-72
2022/03/14 08:34:06;;;;;;;55.03;21.90;;;;;;;6.41;52.79;101930.25;4802102;58;1138901;-73
2022/03/14 08:39:13;;;;;;;48.07;22.67;;;;;;;6.65;51.66;101931.48;4591312;61;1138914;-72
2022/03/14 08:44:19;;;;;;;40.80;20.33;;;;;;;6.88;52.47;101925.75;4637460;61;1138945;-72
2022/03/14 08:49:24;;;;;;;35.67;19.00;;;;;;;7.08;49.22;101928.45;4791054;59;1138853;-71
2022/03/14 08:54:30;;;;;;;40.93;20.23;;;;;;;7.12;49.07;101918.21;4708377;60;1139122;-72
2022/03/14 08:59:36;;;;;;;41.77;20.60;;;;;;;7.25;48.36;101922.05;4890150;58;1139116;-74
2022/03/14 09:04:42;;;;;;;46.13;18.97;;;;;;;7.41;47.03;101912.59;4834849;58;1138857;-72
2022/03/14 09:09:49;;;;;;;36.73;18.80;;;;;;;7.60;45.22;101912.67;4791726;59;1138764;-71
2022/03/14 09:14:55;;;;;;;35.73;19.13;;;;;;;7.68;44.45;101911.00;4922242;58;1138892;-73
2022/03/14 09:20:02;;;;;;;41.55;21.77;;;;;;;7.80;44.32;101909.61;4938169;58;1138941;-72
2022/03/14 09:25:09;;;;;;;35.50;17.97;;;;;;;8.07;46.53;101915.00;4947287;58;1138721;-74
2022/03/14 09:30:16;;;;;;;30.07;16.03;;;;;;;8.41;44.68;101905.95;4947036;58;1139189;-73
2022/03/14 09:35:24;;;;;;;32.80;17.63;;;;;;;8.66;41.29;101904.36;4948399;56;1138924;-74
2022/03/14 09:40:32;;;;;;;35.27;17.43;;;;;;;8.75;38.35;101910.96;4955728;57;1138692;-73
2022/03/14 09:45:40;;;;;;;35.33;18.17;;;;;;;8.77;37.95;101921.84;4955868;57;1148561;-72
2022/03/14 09:50:47;;;;;;;33.65;15.93;;;;;;;8.92;39.04;101912.80;4956413;57;1138848;-74
2022/03/14 09:55:52;;;;;;;29.92;15.40;;;;;;;9.15;38.98;101920.00;4956476;57;1138938;-74
2022/03/14 10:00:59;;;;;;;38.60;16.70;;;;;;;9.36;39.96;101920.69;4956307;57;1138761;-73
2022/03/14 10:06:05;;;;;;;32.83;17.03;;;;;;;9.62;38.19;101907.51;4953402;57;1138793;-74
2022/03/14 10:11:10;;;;;;;32.47;16.53;;;;;;;9.85;36.46;101903.66;4859944;59;1141065;-72
2022/03/14 10:16:16;;;;;;;36.03;18.23;;;;;;;9.91;35.39;101888.81;4847408;59;1140822;-74
2022/03/14 10:21:35;;;;;;;39.27;17.03;;;;;;;10.01;37.00;101877.27;4788489;60;1140914;-72
2022/03/14 10:26:46;;;;;;;30.75;16.17;;;;;;;10.23;36.00;101872.08;4890185;58;1142911;-73
2022/03/14 10:31:56;;;;;;;38.55;19.67;;;;;;;10.49;34.99;101873.77;4947157;58;1143028;-74
2022/03/14 10:37:04;;;;;;;31.40;15.30;;;;;;;10.61;33.91;101883.66;4984930;57;1143063;-74
2022/03/14 10:42:12;;;;;;;24.13;14.43;;;;;;;10.65;32.17;101889.17;4947777;58;1142970;-74
2022/03/14 10:47:19;;;;;;;31.03;16.10;;;;;;;10.71;32.28;101884.84;5003138;57;1143281;-72
2022/03/14 10:52:25;;;;;;;31.67;15.30;;;;;;;10.90;33.38;101870.10;4869127;59;1142930;-72
2022/03/14 10:57:31;;;;;;;33.03;15.70;;;;;;;11.07;33.13;101878.40;4986684;57;1142833;-73
2022/03/14 11:02:38;;;;;;;27.27;13.60;;;;;;;11.23;32.33;101867.30;4869642;58;1146571;-72
2022/03/14 11:07:44;;;;;;;25.10;14.20;;;;;;;11.44;31.61;101867.83;4913388;57;1143013;-70
2022/03/14 11:12:52;;;;;;;23.30;12.45;;;;;;;11.54;30.97;101860.55;5017069;57;1143081;-71
2022/03/14 11:17:58;;;;;;;32.43;13.67;;;;;;;11.79;31.83;101867.03;5012730;57;1142745;-71
2022/03/14 11:23:05;;;;;;;23.80;13.67;;;;;;;11.92;29.37;101861.35;4956800;58;1142815;-71
2022/03/14 11:28:17;;;;;;;27.60;13.23;;;;;;;11.96;29.94;101858.90;4956800;58;1142899;-71
2022/03/14 11:33:23;;;;;;;25.83;14.30;;;;;;;11.95;28.00;101860.70;4951709;58;1142780;-71
2022/03/14 11:38:30;;;;;;;26.77;13.83;;;;;;;11.90;28.75;101852.20;4897186;58;1142792;-71
2022/03/14 11:43:39;;;;;;;36.83;11.97;;;;;;;12.05;28.96;101858.82;4936619;58;1143019;-70
2022/03/14 11:48:45;;;;;;;35.20;14.47;;;;;;;12.14;26.93;101852.45;4935219;58;1142826;-71
2022/03/14 11:59:00;;;;;;;35.83;17.47;;;;;;;12.42;27.99;101822.84;5157657;54;46249;-69
2022/03/14 12:09:30;;;;;;;25.83;12.97;;;;;;;12.81;27.33;101810.11;5228320;55;46351;-69
2022/03/14 12:14:48;;;;;;;23.27;13.27;;;;;;;12.77;26.65;101802.81;4965758;57;1139499;-69
2022/03/14 12:19:58;;;;;;;28.00;11.25;;;;;;;12.79;25.99;101803.56;4908326;57;1143173;-69
2022/03/14 12:25:07;;;;;;;24.73;12.60;;;;;;;12.93;26.27;101818.58;4954417;57;1143280;-69
2022/03/14 12:30:24;;;;;;;22.63;12.23;;;;;;;12.95;26.07;101802.06;5002264;56;1143123;-71
2022/03/14 12:35:34;;;;;;;19.57;11.20;;;;;;;13.13;27.02;101804.81;4984870;56;1143157;-71
2022/03/14 12:40:44;;;;;;;27.53;14.40;;;;;;;13.26;24.85;101803.05;5034925;56;1143218;-71
2022/03/14 12:46:00;;;;;;;27.90;16.17;;;;;;;13.25;26.31;101801.83;5046318;56;1142941;-71
2022/03/14 12:51:09;;;;;;;22.83;10.90;;;;;;;13.36;24.96;101792.63;5017554;56;1143468;-72
2022/03/14 12:56:21;;;;;;;26.07;10.20;;;;;;;13.55;25.52;101804.17;4989785;56;1143412;-71
2022/03/14 13:01:30;;;;;;;19.20;10.97;;;;;;;13.72;24.80;101805.18;5029425;56;1142988;-71
2022/03/14 13:06:40;;;;;;;28.20;13.43;;;;;;;13.89;25.88;101805.33;5080071;56;1192107;-71
2022/03/14 13:11:46;;;;;;;17.42;9.63;;;;;;;13.93;24.01;101838.70;5087273;56;1143200;-71
2022/03/14 13:16:56;;;;;;;24.82;13.20;;;;;;;13.85;24.74;101836.59;5093830;56;1141027;-70
2022/03/14 13:22:14;;;;;;;24.77;11.60;;;;;;;13.77;25.41;101828.77;5098372;56;1143201;-72
2022/03/14 13:27:27;;;;;;;22.97;12.73;;;;;;;13.80;25.93;101816.59;5050237;56;1143230;-71
2022/03/14 13:32:33;;;;;;;;;;;;;;;13.85;25.67;101815.80;5058172;56;1143085;-71
2022/03/14 13:37:49;;;;;;;25.20;13.20;;;;;;;13.91;24.91;101815.34;5058711;56;976399;-72
2022/03/14 13:42:55;;;;;;;24.90;11.65;;;;;;;13.94;23.89;101815.13;5067212;55;1141140;-71
2022/03/14 13:48:01;;;;;;;21.63;14.23;;;;;;;13.91;24.41;101817.52;5053489;56;1143054;-71
2022/03/14 13:53:07;;;;;;;23.57;13.37;;;;;;;13.88;24.73;101805.80;5053780;56;1143170;-71
2022/03/14 13:58:20;;;;;;;27.53;12.73;;;;;;;13.93;24.84;101811.62;5067535;56;1143089;-71
2022/03/14 14:03:26;;;;;;;25.50;14.30;;;;;;;14.05;25.03;101800.61;4997799;56;1142977;-72
2022/03/14 14:08:38;;;;;;;17.53;11.23;;;;;;;14.07;25.00;101799.52;4946405;58;1142875;-72
2022/03/14 14:13:51;;;;;;;23.23;12.03;;;;;;;14.12;24.41;101805.84;4999792;58;1143316;-71
2022/03/14 14:19:14;;;;;;;19.50;12.23;;;;;;;14.06;24.82;101801.80;4999275;57;1143096;-71
2022/03/14 14:24:23;;;;;;;24.27;14.13;;;;;;;14.11;25.77;101792.17;4950169;58;1142906;-71
2022/03/14 14:29:46;;;;;;;15.80;10.20;;;;;;;14.24;25.00;101781.00;5010656;56;1142910;-71
2022/03/14 14:34:54;;;;;;;33.93;14.90;;;;;;;14.20;24.43;101773.38;4940007;57;1142857;-71
2022/03/14 14:40:00;;;;;;;20.27;12.33;;;;;;;14.24;25.62;101781.48;4969461;56;1143272;-71
2022/03/14 14:45:06;;;;;;;22.57;12.93;;;;;;;14.25;24.00;101788.02;4955561;57;1143420;-71
2022/03/14 14:50:13;;;;;;;21.82;10.20;;;;;;;14.07;24.40;101792.86;4981760;57;1143015;-72
2022/03/14 14:55:19;;;;;;;20.97;12.20;;;;;;;14.11;24.36;101788.18;5043638;56;1143009;-70
2022/03/14 15:00:27;;;;;;;22.20;12.60;;;;;;;14.03;24.50;101789.23;4975732;56;1143236;-70
2022/03/14 15:05:33;;;;;;;38.63;13.40;;;;;;;14.01;24.83;101785.34;4934689;58;1142991;-70
2022/03/14 15:10:39;;;;;;;27.70;11.60;;;;;;;13.98;24.86;101795.34;4947562;57;1143193;-70
2022/03/14 15:15:45;;;;;;;25.70;11.77;;;;;;;13.89;24.06;101787.56;4878132;58;1143101;-69
2022/03/14 15:20:51;;;;;;;20.20;10.08;;;;;;;13.85;24.88;101787.39;4883154;58;1143258;-70
2022/03/14 15:25:58;;;;;;;19.67;11.50;;;;;;;13.79;23.95;101793.14;4969545;56;1143098;-71
2022/03/14 15:31:03;;;;;;;48.73;25.37;;;;;;;13.73;24.80;101788.27;5042622;56;1143015;-72
2022/03/14 15:36:10;;;;;;;25.23;12.80;;;;;;;13.72;24.75;101794.06;5011832;57;1143438;-71
2022/03/14 15:41:15;;;;;;;32.33;14.33;;;;;;;13.71;25.06;101796.36;5012130;57;1143322;-72
2022/03/14 15:46:24;;;;;;;41.33;15.70;;;;;;;13.76;24.76;101796.01;5043470;56;1143079;-72
2022/03/14 15:51:29;;;;;;;41.57;14.93;;;;;;;13.75;24.98;101783.67;5051807;56;1142986;-72
2022/03/14 15:56:36;;;;;;;45.17;28.73;;;;;;;13.83;24.85;101782.66;5062124;56;1142939;-71
2022/03/14 16:01:42;;;;;;;35.03;15.17;;;;;;;13.83;24.85;101782.66;5056387;56;1143110;-73
2022/03/14 16:06:48;;;;;;;44.98;15.10;;;;;;;14.50;23.99;101783.61;5049744;56;1143244;-72
2022/03/14 16:11:55;;;;;;;35.85;21.25;;;;;;;15.20;23.09;101781.80;5044048;56;1142918;-72
2022/03/14 16:17:02;;;;;;;25.27;15.77;;;;;;;15.07;22.60;101789.89;5080212;56;1143073;-72
2022/03/14 16:22:08;;;;;;;50.63;25.10;;;;;;;14.46;22.35;101794.11;5156066;55;1142970;-72
2022/03/14 16:27:15;;;;;;;56.83;16.70;;;;;;;13.95;23.45;101804.39;5149221;55;1142974;-72
2022/03/14 16:32:21;;;;;;;39.98;15.15;;;;;;;13.57;24.16;101803.12;5157499;56;1143007;-71
2022/03/14 16:37:28;;;;;;;38.80;15.33;;;;;;;13.29;24.63;101808.64;5119220;56;1143060;-71
2022/03/14 16:42:33;;;;;;;47.13;16.87;;;;;;;13.08;25.10;101811.38;5104493;56;1143033;-72
2022/03/14 16:47:40;;;;;;;104.07;34.90;;;;;;;12.88;25.05;101808.25;5209020;55;1143007;-71
2022/03/14 16:52:46;;;;;;;123.80;45.03;;;;;;;12.69;25.33;101807.28;5074962;55;1145315;-72
2022/03/14 16:57:52;;;;;;;153.32;42.23;;;;;;;12.48;25.61;101808.71;5056127;56;1145187;-72
2022/03/14 17:03:01;;;;;;;159.00;39.80;;;;;;;12.31;25.86;101809.80;5068324;56;1145115;-72
2022/03/14 17:08:08;;;;;;;66.37;25.30;;;;;;;12.14;26.02;101820.63;5114199;55;1145337;-72
2022/03/14 17:13:14;;;;;;;64.93;26.07;;;;;;;11.97;26.24;101819.03;5149965;55;1143125;-72
2022/03/14 17:18:23;;;;;;;265.93;100.77;;;;;;;11.81;26.51;101828.04;5139424;55;1143149;-72
2022/03/14 17:23:28;;;;;;;584.53;245.43;;;;;;;11.71;27.41;101827.73;5129499;56;1147486;-72
2022/03/14 17:28:34;;;;;;;136.37;73.00;;;;;;;11.67;27.91;101840.78;5202767;55;1147505;-72
2022/03/14 17:33:39;;;;;;;187.87;92.73;;;;;;;11.57;28.33;101837.86;5130960;55;1145288;-72
2022/03/14 17:38:45;;;;;;;179.77;77.90;;;;;;;11.44;28.85;101846.64;5130794;56;1145204;-71
2022/03/14 17:43:52;;;;;;;271.20;120.30;;;;;;;11.21;29.19;101840.90;5131517;56;1145408;-69
2022/03/14 17:48:58;;;;;;;226.30;100.82;;;;;;;11.10;29.61;101854.40;5131281;56;1147290;-69
2022/03/14 17:54:04;;;;;;;172.50;72.63;;;;;;;10.98;29.96;101854.65;5130990;56;1147119;-71
2022/03/14 17:59:10;;;;;;;156.50;62.50;;;;;;;10.82;30.20;101852.50;5075061;56;1145006;-71
2022/03/14 18:04:16;;;;;;;208.80;98.73;;;;;;;10.64;30.45;101852.22;5122054;56;1145026;-71
2022/03/14 18:09:22;;;;;;;199.13;85.33;;;;;;;10.53;30.91;101847.08;5121492;56;1145053;-71
2022/03/14 18:14:28;;;;;;;166.50;78.13;;;;;;;10.46;31.45;101850.13;5131795;56;1145010;-71
2022/03/14 18:19:34;;;;;;;142.80;61.40;;;;;;;10.35;31.70;101849.88;5116935;56;1191281;-71
2022/03/14 18:24:40;;;;;;;152.30;68.97;;;;;;;10.25;32.11;101852.16;5121008;56;1180642;-70
2022/03/14 18:29:45;;;;;;;151.60;68.27;;;;;;;10.14;32.49;101850.55;5120440;56;1150611;-71
2022/03/14 18:34:53;;;;;;;108.55;40.90;;;;;;;9.97;33.18;101851.46;5140606;56;1142918;-71
2022/03/14 18:39:59;;;;;;;1600.43;652.62;;;;;;;9.73;33.52;101852.78;5140710;56;1140725;-70
2022/03/14 18:45:07;;;;;;;1325.73;587.70;;;;;;;9.48;34.45;101854.51;5140187;56;1144897;-71
2022/03/14 18:50:14;;;;;;;486.35;246.68;;;;;;;9.29;35.42;101849.81;5035325;57;1144951;-70
2022/03/14 18:55:20;;;;;;;294.77;145.93;;;;;;;9.12;36.00;101849.34;5055551;56;1143153;-70
2022/03/14 19:00:26;;;;;;;588.07;324.60;;;;;;;9.01;36.29;101844.58;4967029;57;1143062;-69
2022/03/14 19:05:33;;;;;;;515.80;262.80;;;;;;;9.01;36.29;101844.58;5095012;56;1142970;-70
2022/03/14 19:10:38;;;;;;;218.43;97.53;;;;;;;8.94;36.39;101839.23;5149219;56;1142855;-70
2022/03/14 19:15:45;;;;;;;146.07;65.00;;;;;;;8.93;36.21;101841.48;5149369;56;1140785;-70
2022/03/14 19:20:51;;;;;;;98.77;43.33;;;;;;;8.92;36.16;101840.23;5035244;56;1140877;-71
2022/03/14 19:25:57;;;;;;;80.57;33.75;;;;;;;8.92;35.65;101844.19;5044135;56;1138853;-71
2022/03/14 19:31:04;;;;;;;58.10;28.00;;;;;;;8.91;35.37;101851.72;5090139;55;1138977;-70
2022/03/14 19:36:10;;;;;;;53.67;24.90;;;;;;;8.92;35.20;101844.19;5017970;57;1138862;-70
2022/03/14 19:41:18;;;;;;;59.17;28.53;;;;;;;8.91;34.97;101845.98;5111904;55;1138925;-70
2022/03/14 19:46:25;;;;;;;57.57;27.60;;;;;;;8.89;35.16;101849.15;5174453;55;1138842;-71
2022/03/14 19:51:32;;;;;;;118.40;46.30;;;;;;;8.85;35.57;101844.98;5160239;55;1138980;-71
2022/03/14 19:56:40;;;;;;;119.10;41.13;;;;;;;8.76;35.01;101844.09;5087292;57;1140944;-70
2022/03/14 20:01:46;;;;;;;108.07;39.30;;;;;;;8.76;35.01;101844.09;4945550;58;1140970;-72
2022/03/14 20:06:54;;;;;;;128.53;54.55;;;;;;;8.78;35.51;101853.64;4991889;57;1140942;-71
2022/03/14 20:12:00;;;;;;;81.22;36.48;;;;;;;8.80;35.42;101862.34;5010975;57;1140946;-71
2022/03/14 20:17:08;;;;;;;365.37;126.17;;;;;;;8.79;35.48;101863.27;5008006;57;1139010;-71
2022/03/14 20:22:15;;;;;;;317.10;116.90;;;;;;;8.77;35.85;101869.08;4980678;56;1143013;-70
2022/03/14 20:27:21;;;;;;;510.50;211.10;;;;;;;8.73;36.49;101875.42;5025454;57;1143016;-71
2022/03/14 20:32:30;;;;;;;415.67;155.10;;;;;;;8.68;36.33;101879.23;5026097;57;1143014;-70
2022/03/14 20:37:34;;;;;;;149.43;66.30;;;;;;;8.63;36.68;101883.86;5030870;56;1143007;-70
2022/03/14 20:42:40;;;;;;;313.80;115.93;;;;;;;8.60;36.73;101887.49;5094470;56;1141009;-71
2022/03/14 20:47:45;;;;;;;142.22;57.00;;;;;;;8.56;37.70;101892.52;5024405;56;1143444;-70
2022/03/14 20:52:53;;;;;;;227.25;95.92;;;;;;;8.53;37.50;101890.51;5081666;56;1141287;-70
2022/03/14 20:57:59;;;;;;;103.30;41.40;;;;;;;8.42;37.19;101887.89;5059409;56;1140991;-70
2022/03/14 21:03:07;;;;;;;69.35;30.75;;;;;;;8.28;37.05;101902.61;5129573;56;1141095;-70
2022/03/14 21:08:13;;;;;;;93.77;42.73;;;;;;;8.07;37.22;101896.55;5109110;56;1138882;-70
2022/03/14 21:13:27;;;;;;;73.50;35.07;;;;;;;7.89;37.41;101898.69;5104272;56;1138847;-71
2022/03/14 21:18:30;;;;;;;59.10;28.03;;;;;;;7.71;37.66;101897.72;5098699;56;1139016;-71
2022/03/14 21:23:36;;;;;;;59.37;24.77;;;;;;;7.63;38.00;101898.52;5039503;56;1138916;-71
2022/03/14 21:28:42;;;;;;;51.57;24.33;;;;;;;7.59;38.08;101900.42;5049971;56;1138832;-71
2022/03/14 21:33:50;;;;;;;79.05;30.70;;;;;;;7.54;38.14;101892.32;4933107;57;1138875;-72
2022/03/14 21:38:57;;;;;;;77.30;29.30;;;;;;;7.51;38.41;101893.30;4997683;56;1138836;-71
2022/03/14 21:44:02;;;;;;;62.03;27.67;;;;;;;7.52;38.43;101889.75;5057809;56;1138867;-72
2022/03/14 21:49:10;;;;;;;65.67;31.87;;;;;;;7.50;38.67;101894.22;5078020;56;1138979;-71
2022/03/14 21:54:16;;;;;;;70.87;29.97;;;;;;;7.33;38.75;101894.94;5026401;56;1139009;-71
2022/03/14 21:59:22;;;;;;;68.23;32.10;;;;;;;7.22;39.08;101891.05;5066543;56;1138906;-71
2022/03/14 22:04:28;;;;;;;59.27;29.33;;;;;;;7.12;39.31;101897.16;5092999;56;1138911;-71
2022/03/14 22:09:34;;;;;;;69.97;28.37;;;;;;;7.07;39.52;101900.43;5079548;56;1138969;-71
2022/03/14 22:14:43;;;;;;;59.73;26.77;;;;;;;6.96;39.80;101899.56;5079570;56;1138831;-71
2022/03/14 22:19:48;;;;;;;61.93;26.77;;;;;;;6.89;39.99;101902.03;5082073;56;1138807;-71
2022/03/14 22:24:53;;;;;;;74.62;32.95;;;;;;;6.86;40.31;101913.16;5086962;56;1138684;-72
2022/03/14 22:30:00;;;;;;;88.30;37.33;;;;;;;6.85;40.56;101914.07;5022358;57;1139129;-71
2022/03/14 22:35:12;;;;;;;100.90;48.92;;;;;;;6.86;40.86;101906.12;5015633;57;1138868;-70
2022/03/14 22:40:15;;;;;;;123.50;58.07;;;;;;;6.92;41.82;101907.63;5051403;54;1140975;-71
2022/03/14 22:45:21;;;;;;;126.27;57.07;;;;;;;6.93;42.24;101917.23;5054826;55;1140989;-71
2022/03/14 22:50:27;;;;;;;129.40;57.53;;;;;;;6.86;42.43;101920.59;5054671;54;1140811;-71
2022/03/14 22:55:36;;;;;;;226.88;102.30;;;;;;;6.80;42.88;101923.45;5054353;55;1140770;-70
2022/03/14 23:00:50;;;;;;;112.33;49.43;;;;;;;6.70;42.95;101928.22;5073253;54;1143163;-70